Time;durP1;ratioP1;P1;durP2;ratioP2;P2;SDS_P1;SDS_P2;PMS_P1;PMS_P2;Temp;Humidity;BMP_temperature;BMP_pressure;BME280_temperature;BME280_humidity;BME280_pressure;Samples;Min_cycle;Max_cycle;Signal;HPM_P1;HPM_P2
2022/01/02 00:00:15;;;;;;;7.30;3.27;;;12.20;99.90;;;;;;5032024;28;20189;-80
2022/01/02 00:02:42;;;;;;;3.83;2.57;;;12.20;99.90;;;;;;5018141;28;20217;-79
2022/01/02 00:05:14;;;;;;;6.30;2.43;;;12.20;99.90;;;;;;5037950;28;20269;-79
2022/01/02 00:08:04;;;;;;;4.80;2.60;;;12.20;99.90;;;;;;5029258;28;20293;-79
2022/01/02 00:10:53;;;;;;;5.80;2.70;;;12.30;99.90;;;;;;5008187;28;20721;-78
2022/01/02 00:13:33;;;;;;;5.63;2.90;;;12.20;99.90;;;;;;5024180;28;20165;-79
2022/01/02 00:16:05;;;;;;;6.60;3.70;;;12.20;99.90;;;;;;5031813;28;20211;-79
2022/01/02 00:18:34;;;;;;;5.23;2.93;;;12.30;99.90;;;;;;5051999;28;20181;-79
2022/01/02 00:21:03;;;;;;;5.73;2.47;;;12.30;99.90;;;;;;5027467;28;20226;-79
2022/01/02 00:23:33;;;;;;;3.80;2.60;;;12.30;99.90;;;;;;5025544;28;20178;-79
2022/01/02 00:26:04;;;;;;;5.20;2.90;;;12.20;99.90;;;;;;5035269;28;20215;-81
2022/01/02 00:28:32;;;;;;;4.63;2.40;;;12.20;99.90;;;;;;5028481;28;20202;-79
2022/01/02 00:30:58;;;;;;;4.13;2.40;;;12.20;99.90;;;;;;5022439;28;20170;-79
2022/01/02 00:33:25;;;;;;;4.10;2.53;;;12.20;99.90;;;;;;5037019;28;20227;-79
2022/01/02 00:35:54;;;;;;;7.80;2.70;;;12.10;99.90;;;;;;5034903;28;20281;-80
2022/01/02 00:38:21;;;;;;;4.83;2.57;;;12.20;99.90;;;;;;5033139;28;20253;-80
2022/01/02 00:40:52;;;;;;;4.80;2.60;;;12.20;99.90;;;;;;5046960;28;20670;-80
2022/01/02 00:43:33;;;;;;;5.10;2.97;;;12.20;99.90;;;;;;5042955;28;20530;-81
2022/01/02 00:45:59;;;;;;;5.97;2.60;;;12.10;99.90;;;;;;5049765;28;20209;-80
2022/01/02 00:48:29;;;;;;;6.97;2.60;;;12.00;99.90;;;;;;5043980;28;20197;-80
2022/01/02 00:51:01;;;;;;;3.23;2.20;;;12.00;99.90;;;;;;5037708;28;20189;-80
2022/01/02 00:53:33;;;;;;;4.77;2.83;;;11.80;99.90;;;;;;5036116;28;20667;-80
2022/01/02 00:56:01;;;;;;;4.80;2.60;;;11.70;99.90;;;;;;5043509;28;20190;-80
2022/01/02 00:58:53;;;;;;;3.23;2.63;;;11.50;99.90;;;;;;5043424;28;20597;-80
2022/01/02 01:01:29;;;;;;;6.10;3.20;;;11.30;99.90;;;;;;5020023;28;20281;-80
2022/01/02 01:03:55;;;;;;;5.67;2.83;;;11.20;99.90;;;;;;5039736;28;20208;-80
2022/01/02 01:06:26;;;;;;;6.20;3.10;;;11.00;99.90;;;;;;5036932;28;20205;-80
2022/01/02 01:08:56;;;;;;;4.77;2.50;;;10.90;99.90;;;;;;5040244;28;20193;-80
2022/01/02 01:11:25;;;;;;;6.07;3.10;;;10.90;99.90;;;;;;5046791;28;20181;-80
2022/01/02 01:13:52;;;;;;;6.50;3.27;;;10.90;99.90;;;;;;5040435;28;20174;-80
2022/01/02 01:16:18;;;;;;;6.93;3.87;;;10.90;99.90;;;;;;5051459;28;20197;-81
2022/01/02 01:18:44;;;;;;;6.30;3.30;;;10.90;99.90;;;;;;5052517;28;20196;-81
2022/01/02 01:21:10;;;;;;;5.70;3.33;;;10.90;99.90;;;;;;5042031;28;20161;-81
2022/01/02 01:23:36;;;;;;;7.00;3.50;;;10.90;99.90;;;;;;5044723;28;20537;-81
2022/01/02 01:26:06;;;;;;;7.77;3.67;;;10.80;99.90;;;;;;5045707;28;20192;-80
2022/01/02 01:28:32;;;;;;;6.13;3.70;;;10.80;99.90;;;;;;5051733;28;20319;-80
2022/01/02 01:30:58;;;;;;;6.03;3.27;;;10.80;99.90;;;;;;5040244;28;20166;-80
2022/01/02 01:33:24;;;;;;;6.30;3.60;;;10.70;99.90;;;;;;5049988;28;20226;-80
2022/01/02 01:35:49;;;;;;;7.83;4.20;;;10.70;99.90;;;;;;5047989;28;20657;-80
2022/01/02 01:38:15;;;;;;;12.37;3.87;;;10.60;99.90;;;;;;5037675;28;20180;-80
2022/01/02 01:40:48;;;;;;;6.67;4.20;;;10.50;99.90;;;;;;5046027;28;20189;-80
2022/01/02 01:43:14;;;;;;;7.93;4.30;;;10.60;99.90;;;;;;5035946;28;20235;-80
2022/01/02 01:45:42;;;;;;;5.10;3.83;;;10.60;99.90;;;;;;5027257;28;21393;-79
2022/01/02 01:48:09;;;;;;;9.80;4.57;;;10.50;99.90;;;;;;5039632;28;20189;-80
2022/01/02 01:50:41;;;;;;;7.87;4.23;;;10.40;99.90;;;;;;5043093;28;20170;-79
2022/01/02 01:53:11;;;;;;;7.30;4.43;;;10.50;99.90;;;;;;5040387;28;20271;-78
2022/01/02 01:55:38;;;;;;;8.13;4.83;;;10.50;99.90;;;;;;5026444;28;20247;-80
2022/01/02 01:58:12;;;;;;;8.87;4.80;;;10.50;99.90;;;;;;5024159;28;20261;-79
2022/01/02 02:00:41;;;;;;;6.70;4.57;;;10.50;99.90;;;;;;5023560;28;20184;-79
2022/01/02 02:03:13;;;;;;;8.20;4.67;;;10.50;99.90;;;;;;5045729;28;20177;-80
2022/01/02 02:05:39;;;;;;;8.33;5.17;;;10.40;99.90;;;;;;5043860;28;20289;-80
2022/01/02 02:08:06;;;;;;;9.53;5.80;;;10.50;99.90;;;;;;5035455;28;20270;-79
2022/01/02 02:10:39;;;;;;;7.80;5.03;;;10.40;99.90;;;;;;5026751;28;20175;-79
2022/01/02 02:13:07;;;;;;;10.70;5.63;;;10.30;99.90;;;;;;5035894;28;20265;-79
2022/01/02 02:15:37;;;;;;;9.97;5.70;;;10.30;99.90;;;;;;5034893;28;20239;-79
2022/01/02 02:18:04;;;;;;;12.10;6.20;;;10.20;99.90;;;;;;5049538;28;20177;-79
2022/01/02 02:20:36;;;;;;;8.40;6.53;;;10.10;99.90;;;;;;5031805;28;20180;-78
2022/01/02 02:23:05;;;;;;;12.10;6.60;;;10.20;99.90;;;;;;5036484;28;20192;-79
2022/01/02 02:25:38;;;;;;;10.63;6.40;;;10.10;99.90;;;;;;5023653;28;20215;-77
2022/01/02 02:28:25;;;;;;;8.30;5.67;;;10.20;99.90;;;;;;5037783;28;20201;-80
2022/01/02 02:30:52;;;;;;;9.50;6.00;;;10.10;99.90;;;;;;5034739;28;20208;-78
2022/01/02 02:33:18;;;;;;;10.53;6.03;;;10.10;99.90;;;;;;5033383;28;20186;-77
2022/01/02 02:35:46;;;;;;;9.23;6.33;;;10.00;99.90;;;;;;5034657;28;20201;-78
2022/01/02 02:38:15;;;;;;;9.47;6.53;;;10.00;99.90;;;;;;5034137;28;20192;-78
2022/01/02 02:40:41;;;;;;;12.30;7.20;;;10.00;99.90;;;;;;5033478;28;20186;-79
2022/01/02 02:51:35;;;;;;;13.67;8.30;;;10.00;99.90;;;;;;5041381;28;20169;-80
2022/01/02 02:54:00;;;;;;;13.50;8.10;;;10.00;99.90;;;;;;5049027;28;20263;-79
2022/01/02 02:56:30;;;;;;;13.67;8.43;;;9.90;99.90;;;;;;5041409;28;20278;-79
2022/01/02 02:58:57;;;;;;;12.87;9.00;;;10.00;99.90;;;;;;5046428;28;20627;-79
2022/01/02 03:01:28;;;;;;;13.23;7.80;;;10.10;99.90;;;;;;5034914;28;20539;-79
2022/01/02 03:03:55;;;;;;;12.37;8.43;;;10.10;99.90;;;;;;5049415;28;20586;-79
2022/01/02 03:06:24;;;;;;;11.57;7.50;;;10.00;99.90;;;;;;5026884;28;20279;-78
2022/01/02 03:08:52;;;;;;;10.13;7.73;;;10.00;99.90;;;;;;5032824;28;20714;-79
2022/01/02 03:11:20;;;;;;;13.00;8.13;;;10.00;99.90;;;;;;5024959;28;20205;-79
2022/01/02 03:13:50;;;;;;;14.60;7.77;;;10.00;99.90;;;;;;5032176;28;20180;-79
2022/01/02 03:16:16;;;;;;;12.13;7.80;;;10.00;99.90;;;;;;5031256;28;20202;-79
2022/01/02 03:18:42;;;;;;;14.30;7.53;;;10.00;99.90;;;;;;5027400;28;20178;-78
2022/01/02 03:21:09;;;;;;;12.40;7.40;;;9.90;99.90;;;;;;5030477;28;20189;-78
2022/01/02 03:23:35;;;;;;;9.77;7.37;;;9.90;99.90;;;;;;5022814;28;20177;-78
2022/01/02 03:26:32;;;;;;;9.97;6.63;;;9.90;99.90;;;;;;5037969;28;20204;-78
2022/01/02 03:28:58;;;;;;;10.93;7.20;;;9.90;99.90;;;;;;5023202;28;20171;-78
2022/01/02 03:31:26;;;;;;;11.13;7.80;;;9.90;99.90;;;;;;5021778;28;20172;-78
2022/01/02 03:33:52;;;;;;;12.90;8.17;;;9.90;99.90;;;;;;5025493;28;20187;-78
2022/01/02 03:36:18;;;;;;;11.83;8.20;;;9.90;99.90;;;;;;5036805;28;20200;-78
2022/01/02 03:38:44;;;;;;;12.83;7.97;;;9.90;99.90;;;;;;5025300;28;20614;-78
2022/01/02 03:41:10;;;;;;;12.57;8.20;;;9.90;99.90;;;;;;5025773;28;20264;-78
2022/01/02 03:43:36;;;;;;;11.43;8.37;;;9.90;99.90;;;;;;5039910;28;20272;-78
2022/01/02 03:46:02;;;;;;;10.60;8.00;;;9.90;99.90;;;;;;5025050;28;20276;-78
2022/01/02 03:48:30;;;;;;;11.93;8.33;;;9.90;99.90;;;;;;5020303;28;20212;-79
2022/01/02 03:50:57;;;;;;;11.80;8.07;;;9.90;99.90;;;;;;5045553;28;20196;-78
2022/01/02 03:53:23;;;;;;;13.70;9.07;;;9.90;99.90;;;;;;5044330;28;20172;-78
2022/01/02 03:55:49;;;;;;;13.73;9.33;;;9.90;99.90;;;;;;5033904;28;20190;-79
2022/01/02 03:58:15;;;;;;;12.83;9.50;;;9.80;99.90;;;;;;5031662;28;20229;-77
2022/01/02 04:00:40;;;;;;;13.73;10.20;;;9.90;99.90;;;;;;5041828;28;20181;-77
2022/01/02 04:03:06;;;;;;;14.57;11.23;;;9.90;99.90;;;;;;5023874;28;20188;-78
2022/01/02 04:05:33;;;;;;;17.93;10.97;;;9.90;99.90;;;;;;5025861;28;20191;-77
2022/01/02 04:07:58;;;;;;;14.40;9.80;;;9.90;99.90;;;;;;5028048;28;20206;-78
2022/01/02 04:10:25;;;;;;;13.40;9.53;;;9.90;99.90;;;;;;5025852;28;20206;-78
2022/01/02 04:12:57;;;;;;;14.53;9.23;;;9.90;99.90;;;;;;5044879;28;20177;-78
2022/01/02 04:15:23;;;;;;;14.80;9.70;;;9.90;99.90;;;;;;5040233;28;20193;-78
2022/01/02 04:17:49;;;;;;;12.13;9.50;;;9.90;99.90;;;;;;5030850;28;20187;-78
2022/01/02 04:20:15;;;;;;;13.97;9.67;;;9.90;99.90;;;;;;5048888;28;20613;-78
2022/01/02 04:22:43;;;;;;;13.73;9.17;;;9.90;99.90;;;;;;5038564;28;20581;-77
2022/01/02 04:25:10;;;;;;;12.93;8.90;;;9.90;99.90;;;;;;5037526;28;20203;-77
2022/01/02 04:28:07;;;;;;;15.20;9.13;;;9.90;99.90;;;;;;5025425;28;20194;-79
2022/01/02 04:30:33;;;;;;;13.97;9.17;;;9.80;99.90;;;;;;5032971;28;20327;-78
2022/01/02 04:32:59;;;;;;;16.40;9.97;;;9.80;99.90;;;;;;5035469;28;20241;-79
2022/01/02 04:35:25;;;;;;;15.30;10.07;;;9.90;99.90;;;;;;5046668;28;20196;-78
2022/01/02 04:37:51;;;;;;;13.37;10.37;;;9.90;99.90;;;;;;5029637;28;20237;-78
2022/01/02 04:40:17;;;;;;;11.80;9.80;;;9.90;99.90;;;;;;5041055;28;20189;-78
2022/01/02 04:42:43;;;;;;;14.20;10.27;;;9.80;99.90;;;;;;5030448;28;20172;-78
2022/01/02 04:45:09;;;;;;;15.90;10.53;;;10.00;99.90;;;;;;5031273;28;20258;-78
2022/01/02 04:47:35;;;;;;;12.63;9.93;;;9.90;99.90;;;;;;5040616;28;20212;-78
2022/01/02 04:50:01;;;;;;;15.73;10.50;;;9.90;99.90;;;;;;5040495;28;20177;-78
2022/01/02 04:52:26;;;;;;;16.87;11.03;;;9.90;99.90;;;;;;5052158;28;20180;-79
2022/01/02 04:54:52;;;;;;;15.33;10.50;;;9.90;99.90;;;;;;5030990;28;20169;-79
2022/01/02 04:57:19;;;;;;;17.17;11.50;;;9.90;99.90;;;;;;5048546;28;20609;-78
2022/01/02 04:59:45;;;;;;;16.63;11.23;;;9.90;99.90;;;;;;5036852;28;20664;-78
2022/01/02 05:02:11;;;;;;;16.50;11.90;;;9.90;99.90;;;;;;5036854;28;20176;-78
2022/01/02 05:04:37;;;;;;;16.90;11.73;;;9.90;99.90;;;;;;5048267;28;20180;-78
2022/01/02 05:07:03;;;;;;;19.10;12.40;;;9.90;99.90;;;;;;5027419;28;20220;-78
2022/01/02 05:09:29;;;;;;;17.00;12.10;;;9.90;99.90;;;;;;5032147;28;20727;-79
2022/01/02 05:11:54;;;;;;;14.23;11.67;;;9.90;99.90;;;;;;5049504;28;20330;-78
2022/01/02 05:14:20;;;;;;;14.70;11.40;;;9.90;99.90;;;;;;5037266;28;20230;-78
2022/01/02 05:16:46;;;;;;;17.97;12.07;;;10.00;99.90;;;;;;5044651;28;20556;-78
2022/01/02 05:19:12;;;;;;;15.53;12.50;;;9.90;99.90;;;;;;5044508;28;20237;-78
2022/01/02 05:21:38;;;;;;;15.03;11.60;;;10.00;99.90;;;;;;5042189;28;20223;-79
2022/01/02 05:24:03;;;;;;;15.27;11.67;;;9.90;99.90;;;;;;5042522;28;20650;-79
2022/01/02 05:26:29;;;;;;;16.67;12.33;;;9.90;99.90;;;;;;5033755;28;20798;-78
2022/01/02 05:28:56;;;;;;;16.97;12.40;;;9.90;99.90;;;;;;5044112;28;20210;-78
2022/01/02 05:31:22;;;;;;;14.83;13.00;;;10.00;99.90;;;;;;5036110;28;20184;-78
2022/01/02 05:33:49;;;;;;;18.10;13.30;;;10.00;99.90;;;;;;5032457;28;20188;-78
2022/01/02 05:36:15;;;;;;;20.17;13.53;;;9.90;99.90;;;;;;5032992;28;20193;-78
2022/01/02 05:38:41;;;;;;;18.77;12.70;;;10.00;99.90;;;;;;5035510;28;20178;-79
2022/01/02 05:41:07;;;;;;;17.63;13.10;;;9.90;99.90;;;;;;5029776;28;20177;-78
2022/01/02 05:43:33;;;;;;;18.17;12.77;;;10.00;99.90;;;;;;5040140;28;20181;-78
2022/01/02 05:46:03;;;;;;;18.23;13.23;;;10.00;99.90;;;;;;5033954;28;20279;-78
2022/01/02 05:48:30;;;;;;;18.23;12.97;;;10.00;99.90;;;;;;5036034;28;20206;-78
2022/01/02 05:50:59;;;;;;;18.83;13.83;;;9.90;99.90;;;;;;5051439;28;20251;-79
2022/01/02 05:53:25;;;;;;;18.83;12.57;;;10.00;99.90;;;;;;5035531;28;20170;-80
2022/01/02 05:55:51;;;;;;;19.47;12.47;;;10.00;99.90;;;;;;5037407;28;20189;-82
2022/01/02 05:58:17;;;;;;;19.87;12.30;;;10.00;99.90;;;;;;5028950;28;20687;-81
2022/01/02 06:00:42;;;;;;;17.13;11.90;;;10.00;99.90;;;;;;5048927;28;20182;-81
2022/01/02 06:03:09;;;;;;;19.40;11.77;;;10.00;99.90;;;;;;5036854;28;20259;-82
2022/01/02 06:05:34;;;;;;;14.80;10.20;;;10.00;99.90;;;;;;5045961;28;20239;-82
2022/01/02 06:08:02;;;;;;;17.57;12.07;;;10.00;99.90;;;;;;5031971;28;20694;-82
2022/01/02 06:10:28;;;;;;;14.93;10.67;;;10.00;99.90;;;;;;5037991;28;20177;-81
2022/01/02 06:12:54;;;;;;;13.87;10.13;;;10.00;99.90;;;;;;5037824;28;20259;-82
2022/01/02 06:15:20;;;;;;;20.37;11.67;;;10.00;99.90;;;;;;5046027;28;20193;-82
2022/01/02 06:17:46;;;;;;;16.37;11.70;;;10.10;99.90;;;;;;5036388;28;20193;-81
2022/01/02 06:20:12;;;;;;;18.03;10.47;;;10.10;99.90;;;;;;5044251;28;20188;-82
2022/01/02 06:22:37;;;;;;;18.70;11.30;;;10.10;99.90;;;;;;5037781;28;20176;-82
2022/01/02 06:25:03;;;;;;;20.87;11.50;;;10.10;99.90;;;;;;5048884;28;20211;-81
2022/01/02 06:27:29;;;;;;;20.83;12.50;;;10.20;99.90;;;;;;5046564;28;20189;-80
2022/01/02 06:29:55;;;;;;;19.57;11.60;;;10.20;99.90;;;;;;5035158;28;20180;-82
2022/01/02 06:32:21;;;;;;;19.50;11.33;;;10.20;99.90;;;;;;5043392;28;20169;-82
2022/01/02 06:34:48;;;;;;;16.40;11.17;;;10.10;99.90;;;;;;5038049;28;20169;-81
2022/01/02 06:37:14;;;;;;;17.07;11.97;;;10.20;99.90;;;;;;5045159;28;20180;-80
2022/01/02 06:39:40;;;;;;;19.30;11.67;;;10.20;99.90;;;;;;5032496;28;20182;-79
2022/01/02 06:42:06;;;;;;;19.07;11.07;;;10.20;99.90;;;;;;5048541;28;20183;-80
2022/01/02 06:44:35;;;;;;;17.33;11.23;;;10.20;99.90;;;;;;5037842;28;20181;-81
2022/01/02 06:47:01;;;;;;;19.33;11.53;;;10.20;99.90;;;;;;5031197;28;20229;-81
2022/01/02 06:49:27;;;;;;;16.10;11.87;;;10.20;99.90;;;;;;5040723;28;20176;-81
2022/01/02 06:51:52;;;;;;;18.13;12.50;;;10.20;99.90;;;;;;5037860;28;20181;-82
2022/01/02 06:54:18;;;;;;;18.13;11.57;;;10.20;99.90;;;;;;5050362;28;20592;-80
2022/01/02 06:56:44;;;;;;;16.83;12.07;;;10.20;99.90;;;;;;5038313;28;20672;-81
2022/01/02 06:59:10;;;;;;;17.70;11.83;;;10.20;99.90;;;;;;5038209;28;20192;-82
2022/01/02 07:01:36;;;;;;;14.77;11.27;;;10.20;99.90;;;;;;5042305;28;20245;-82
2022/01/02 07:04:02;;;;;;;18.60;11.40;;;10.20;99.90;;;;;;5045526;28;20168;-82
2022/01/02 07:06:27;;;;;;;17.57;11.73;;;10.10;99.90;;;;;;5038639;28;20205;-82
2022/01/02 07:08:54;;;;;;;18.07;11.97;;;10.20;99.90;;;;;;5048443;28;20208;-82
2022/01/02 07:11:19;;;;;;;17.93;11.40;;;10.20;99.90;;;;;;5051503;28;20183;-82
2022/01/02 07:13:45;;;;;;;16.60;12.10;;;10.20;99.90;;;;;;5050606;28;20223;-81
2022/01/02 07:16:11;;;;;;;17.90;11.93;;;10.20;99.90;;;;;;5048490;28;20195;-81
2022/01/02 07:18:36;;;;;;;13.93;11.23;;;10.20;99.90;;;;;;5047565;28;20225;-82
2022/01/02 07:21:02;;;;;;;18.80;12.27;;;10.20;99.90;;;;;;5049232;28;20185;-81
2022/01/02 07:23:28;;;;;;;18.93;11.73;;;10.20;99.90;;;;;;5055015;28;20175;-81
2022/01/02 07:25:53;;;;;;;20.00;11.70;;;10.20;99.90;;;;;;5050704;28;20197;-83
2022/01/02 07:28:21;;;;;;;18.33;11.77;;;10.20;99.90;;;;;;5049658;28;20203;-82
2022/01/02 07:30:46;;;;;;;19.87;11.13;;;10.20;99.90;;;;;;5049983;28;20204;-83
2022/01/02 07:33:12;;;;;;;20.77;11.63;;;10.30;99.90;;;;;;5038088;28;20176;-83
2022/01/02 07:35:38;;;;;;;16.77;11.73;;;10.20;99.90;;;;;;5035937;28;20193;-83
2022/01/02 07:38:04;;;;;;;15.20;10.97;;;10.20;99.90;;;;;;5030394;28;20173;-82
2022/01/02 07:40:30;;;;;;;14.63;10.20;;;10.30;99.90;;;;;;5038067;28;20181;-82
2022/01/02 07:42:55;;;;;;;17.00;10.80;;;10.40;99.90;;;;;;5043640;28;20188;-82
2022/01/02 07:45:28;;;;;;;20.30;12.00;;;10.40;99.90;;;;;;5039722;28;20221;-82
2022/01/02 07:47:54;;;;;;;17.57;13.17;;;10.40;99.90;;;;;;5036367;28;20241;-82
2022/01/02 07:50:22;;;;;;;22.03;12.97;;;10.50;99.90;;;;;;5038758;28;20181;-82
2022/01/02 07:52:48;;;;;;;19.77;12.20;;;10.50;99.90;;;;;;5052378;28;20176;-83
2022/01/02 07:55:14;;;;;;;21.70;11.93;;;10.50;99.90;;;;;;5040657;28;20196;-78
2022/01/02 07:57:40;;;;;;;18.23;10.77;;;10.50;99.90;;;;;;5051679;28;20180;-82
2022/01/02 08:00:06;;;;;;;14.83;10.00;;;10.50;99.90;;;;;;5053658;28;20192;-79
2022/01/02 08:02:37;;;;;;;17.93;10.40;;;10.50;99.90;;;;;;5070577;28;20260;-82
2022/01/02 08:05:04;;;;;;;18.40;10.03;;;10.60;99.90;;;;;;5047380;28;20215;-81
2022/01/02 08:07:29;;;;;;;17.73;10.40;;;10.60;99.90;;;;;;5056759;28;20205;-81
2022/01/02 08:09:55;;;;;;;18.20;10.37;;;10.60;99.90;;;;;;5045080;28;20268;-81
2022/01/02 08:12:20;;;;;;;18.33;9.80;;;10.60;99.90;;;;;;5053460;28;20312;-81
2022/01/02 08:14:46;;;;;;;15.30;9.57;;;10.60;99.90;;;;;;5044327;28;20603;-82
2022/01/02 08:17:12;;;;;;;19.13;9.80;;;10.60;99.90;;;;;;5043054;28;20439;-81
2022/01/02 08:19:37;;;;;;;17.80;9.60;;;10.70;99.90;;;;;;5049231;28;20203;-80
2022/01/02 08:22:03;;;;;;;17.50;9.57;;;10.70;99.90;;;;;;5047170;28;20173;-81
2022/01/02 08:24:29;;;;;;;15.27;8.67;;;10.70;99.90;;;;;;5054311;28;20635;-80
2022/01/02 08:26:54;;;;;;;16.33;8.83;;;10.70;99.90;;;;;;5042069;28;21169;-80
2022/01/02 08:29:20;;;;;;;15.70;7.97;;;10.80;99.90;;;;;;5040655;28;20260;-82
2022/01/02 08:31:46;;;;;;;16.23;8.37;;;10.80;99.90;;;;;;5040617;28;20170;-81
2022/01/02 08:34:11;;;;;;;17.73;8.10;;;10.80;99.90;;;;;;5050807;28;20181;-81
2022/01/02 08:36:37;;;;;;;16.87;7.80;;;10.80;99.90;;;;;;5052769;28;20193;-81
2022/01/02 08:39:03;;;;;;;16.47;7.17;;;10.80;99.90;;;;;;5048128;28;20185;-81
2022/01/02 08:41:28;;;;;;;12.60;7.43;;;10.90;99.90;;;;;;5039616;28;20563;-82
2022/01/02 08:43:54;;;;;;;13.27;7.47;;;10.90;99.90;;;;;;5047926;28;20191;-82
2022/01/02 08:46:20;;;;;;;11.70;7.10;;;10.90;99.90;;;;;;5040760;28;20220;-80
2022/01/02 08:48:46;;;;;;;12.53;7.07;;;10.90;99.90;;;;;;5040824;28;20282;-82
2022/01/02 08:51:12;;;;;;;10.47;7.07;;;10.90;99.90;;;;;;5038556;28;20178;-82
2022/01/02 08:53:38;;;;;;;10.10;6.60;;;10.90;99.90;;;;;;5039282;28;20181;-82
2022/01/02 08:56:04;;;;;;;13.80;6.77;;;11.00;99.90;;;;;;5049193;28;20249;-82
2022/01/02 08:58:30;;;;;;;12.00;6.97;;;11.00;99.90;;;;;;5044004;28;20178;-81
2022/01/02 09:00:57;;;;;;;13.73;5.70;;;11.00;99.90;;;;;;5043517;28;20287;-82
2022/01/02 09:03:23;;;;;;;12.40;5.80;;;11.00;99.90;;;;;;5047282;28;20211;-82
2022/01/02 09:05:49;;;;;;;9.10;5.70;;;11.10;99.90;;;;;;5042282;28;20205;-82
2022/01/02 09:08:15;;;;;;;8.53;5.23;;;11.10;99.90;;;;;;5041065;28;20699;-81
2022/01/02 09:10:40;;;;;;;12.33;6.00;;;11.20;99.90;;;;;;5032509;28;20174;-81
2022/01/02 09:13:08;;;;;;;10.03;4.70;;;11.30;99.90;;;;;;5054231;28;20323;-81
2022/01/02 09:15:34;;;;;;;9.47;5.23;;;11.30;99.90;;;;;;5034840;28;20200;-81
2022/01/02 09:18:09;;;;;;;7.37;4.40;;;11.30;99.90;;;;;;5040441;28;20189;-82
2022/01/02 09:20:35;;;;;;;9.90;4.73;;;11.40;99.90;;;;;;5035352;28;20214;-80
2022/01/02 09:23:00;;;;;;;12.47;5.00;;;11.40;99.90;;;;;;5055672;28;20169;-81
2022/01/02 09:25:26;;;;;;;10.90;4.63;;;11.50;99.90;;;;;;5042210;28;20243;-78
2022/01/02 09:27:52;;;;;;;10.20;4.60;;;11.50;99.90;;;;;;5046710;28;20235;-80
2022/01/02 09:30:17;;;;;;;10.10;4.37;;;11.40;99.90;;;;;;5043894;28;20229;-82
2022/01/02 09:32:43;;;;;;;7.50;4.40;;;11.50;99.90;;;;;;5043869;28;20212;-82
2022/01/02 09:35:10;;;;;;;9.07;4.50;;;11.50;99.90;;;;;;5047628;28;20205;-82
2022/01/02 09:37:36;;;;;;;11.83;5.20;;;11.60;99.90;;;;;;5037200;28;20181;-82
2022/01/02 09:40:04;;;;;;;10.10;4.57;;;11.50;99.90;;;;;;5041562;28;20192;-82
2022/01/02 09:42:31;;;;;;;10.23;4.97;;;11.60;99.90;;;;;;5042968;28;20183;-82
2022/01/02 09:44:56;;;;;;;7.37;4.23;;;11.70;99.90;;;;;;5040149;28;20250;-83
2022/01/02 09:47:23;;;;;;;11.20;4.23;;;11.70;99.90;;;;;;5053031;28;20205;-81
2022/01/02 09:49:49;;;;;;;7.33;4.47;;;11.70;99.90;;;;;;5039488;28;20174;-82
2022/01/02 09:52:16;;;;;;;10.43;4.63;;;11.70;99.90;;;;;;5040960;28;20161;-83
2022/01/02 09:54:41;;;;;;;9.13;4.63;;;11.80;99.90;;;;;;5048836;28;20185;-81
2022/01/02 09:57:07;;;;;;;8.30;4.27;;;11.70;99.90;;;;;;5040854;28;20268;-83
2022/01/02 09:59:33;;;;;;;13.70;4.27;;;11.60;99.90;;;;;;5034505;28;20173;-83
2022/01/02 10:01:59;;;;;;;7.27;4.30;;;11.50;99.90;;;;;;5043048;28;20200;-82
2022/01/02 10:04:39;;;;;;;9.63;4.67;;;11.50;99.90;;;;;;5040351;28;20178;-83
2022/01/02 10:07:25;;;;;;;7.87;3.80;;;11.50;99.90;;;;;;5037190;28;20288;-83
2022/01/02 10:09:50;;;;;;;7.30;4.07;;;11.50;99.90;;;;;;5055727;28;20170;-79
2022/01/02 10:12:30;;;;;;;8.40;3.90;;;11.50;99.90;;;;;;5045651;28;20169;-82
2022/01/02 10:15:10;;;;;;;10.27;4.10;;;11.40;99.90;;;;;;5034737;28;20615;-83
2022/01/02 10:17:59;;;;;;;7.70;3.97;;;11.40;99.90;;;;;;5048094;28;20177;-83
2022/01/02 10:20:33;;;;;;;8.00;3.80;;;11.30;99.90;;;;;;5051733;28;20213;-82
2022/01/02 10:23:12;;;;;;;5.50;3.60;;;11.30;99.90;;;;;;5047857;28;20200;-82
2022/01/02 10:26:05;;;;;;;10.83;4.17;;;11.30;99.90;;;;;;5038709;28;20209;-81
2022/01/02 10:28:42;;;;;;;8.23;4.10;;;11.20;99.90;;;;;;5034298;28;20209;-82
2022/01/02 10:31:14;;;;;;;8.13;4.70;;;11.10;99.90;;;;;;5038535;28;20180;-82
2022/01/02 10:33:55;;;;;;;9.40;4.63;;;11.10;99.90;;;;;;5028089;28;20174;-82
2022/01/02 10:36:28;;;;;;;8.70;5.07;;;11.10;99.90;;;;;;5038754;28;20201;-81
2022/01/02 10:39:06;;;;;;;7.80;4.80;;;11.10;99.90;;;;;;5041445;28;20632;-81
2022/01/02 10:41:42;;;;;;;6.77;3.97;;;11.10;99.90;;;;;;5041716;28;20170;-82
2022/01/02 10:44:31;;;;;;;7.57;4.30;;;11.20;99.90;;;;;;5048102;28;20177;-82
2022/01/02 10:47:11;;;;;;;9.77;5.13;;;11.10;99.90;;;;;;5049467;28;20224;-82
2022/01/02 10:50:03;;;;;;;6.73;4.47;;;11.10;99.90;;;;;;5046136;28;20166;-82
2022/01/02 10:52:38;;;;;;;10.97;4.20;;;11.10;99.90;;;;;;5050494;28;20169;-82
2022/01/02 10:55:05;;;;;;;9.80;4.40;;;11.10;99.90;;;;;;5034969;28;20205;-81
2022/01/02 10:57:33;;;;;;;10.10;4.73;;;11.10;99.90;;;;;;5033831;28;20182;-82
2022/01/02 11:00:00;;;;;;;6.97;4.10;;;11.10;99.90;;;;;;5040070;28;20185;-77
2022/01/02 11:02:27;;;;;;;8.63;4.83;;;11.10;99.90;;;;;;5050526;28;20166;-78
2022/01/02 11:04:59;;;;;;;8.33;4.50;;;11.10;99.90;;;;;;5055380;28;20185;-76
2022/01/02 11:07:26;;;;;;;7.83;4.53;;;11.20;99.90;;;;;;5057594;28;20189;-77
2022/01/02 11:09:54;;;;;;;7.90;4.53;;;11.10;99.90;;;;;;5056159;28;20166;-77
2022/01/02 11:12:21;;;;;;;9.57;5.27;;;11.10;99.90;;;;;;5049590;28;20167;-78
2022/01/02 11:14:50;;;;;;;8.50;5.00;;;11.20;99.90;;;;;;5067575;28;20223;-77
2022/01/02 11:17:17;;;;;;;9.27;5.20;;;11.10;99.90;;;;;;5049954;28;20169;-78
2022/01/02 11:19:43;;;;;;;10.37;4.90;;;11.20;99.90;;;;;;5063820;28;20183;-77
2022/01/02 11:22:35;;;;;;;11.60;5.80;;;11.20;99.90;;;;;;5063387;28;20239;-78
2022/01/02 11:25:09;;;;;;;8.33;4.77;;;11.10;99.90;;;;;;5031921;28;20173;-78
2022/01/02 11:27:47;;;;;;;11.93;5.10;;;11.10;99.90;;;;;;5063709;28;20202;-77
2022/01/02 11:30:34;;;;;;;10.07;4.37;;;11.10;99.90;;;;;;5056992;28;20199;-76
2022/01/02 11:33:28;;;;;;;7.93;4.70;;;11.00;99.90;;;;;;5049343;28;20172;-77
2022/01/02 11:35:56;;;;;;;12.90;5.63;;;11.00;99.90;;;;;;5066305;28;20193;-77
2022/01/02 11:38:22;;;;;;;11.43;6.23;;;11.00;99.90;;;;;;5047909;28;20174;-78
2022/01/02 11:40:58;;;;;;;13.00;5.93;;;11.00;99.90;;;;;;5064407;28;20184;-79
2022/01/02 11:43:46;;;;;;;8.57;5.60;;;11.00;99.90;;;;;;5065374;28;20184;-77
2022/01/02 11:46:24;;;;;;;10.77;5.17;;;11.00;99.90;;;;;;5061473;28;20296;-79
2022/01/02 11:49:14;;;;;;;11.83;5.67;;;11.00;99.90;;;;;;5060832;28;20213;-77
2022/01/02 11:52:03;;;;;;;8.13;5.50;;;11.00;99.90;;;;;;5046341;28;20165;-77
2022/01/02 11:54:29;;;;;;;12.07;5.50;;;11.00;99.90;;;;;;5054456;28;20169;-78
2022/01/02 11:56:56;;;;;;;10.33;5.40;;;11.00;99.90;;;;;;5062419;28;20220;-79
2022/01/02 11:59:45;;;;;;;13.83;6.10;;;11.00;99.90;;;;;;5047872;28;20245;-80
2022/01/02 12:02:26;;;;;;;12.23;5.80;;;11.00;99.90;;;;;;5062003;28;20193;-80
2022/01/02 12:05:11;;;;;;;12.17;5.73;;;11.00;99.90;;;;;;5043069;28;20193;-80
2022/01/02 12:07:45;;;;;;;8.17;5.33;;;11.00;99.90;;;;;;5054402;28;20216;-80
2022/01/02 12:10:16;;;;;;;12.60;5.60;;;11.00;99.90;;;;;;5054396;28;20190;-81
2022/01/02 12:12:58;;;;;;;10.13;6.17;;;11.00;99.90;;;;;;5061085;28;20249;-80
2022/01/02 12:15:32;;;;;;;6.83;4.63;;;11.00;99.90;;;;;;5060906;28;20196;-81
2022/01/02 12:18:19;;;;;;;9.37;5.20;;;11.10;99.90;;;;;;5044394;28;20188;-81
2022/01/02 12:20:56;;;;;;;9.93;5.43;;;11.30;99.90;;;;;;5048793;28;20196;-81
2022/01/02 12:23:40;;;;;;;7.67;4.90;;;11.40;99.90;;;;;;5052796;28;20184;-80
2022/01/02 12:26:21;;;;;;;9.60;5.17;;;11.50;99.90;;;;;;5043690;28;20224;-80
2022/01/02 12:28:51;;;;;;;8.73;5.27;;;11.60;99.90;;;;;;5055687;28;20206;-80
2022/01/02 12:31:18;;;;;;;9.90;4.60;;;11.60;99.90;;;;;;5056451;28;20185;-79
2022/01/02 12:33:45;;;;;;;12.60;5.37;;;11.80;99.90;;;;;;5057325;28;20173;-79
2022/01/02 12:36:21;;;;;;;10.90;4.93;;;11.70;99.90;;;;;;5050405;28;20209;-81
2022/01/02 12:38:57;;;;;;;10.27;4.93;;;11.80;99.90;;;;;;5058704;28;20165;-80
2022/01/02 12:41:28;;;;;;;13.30;5.20;;;11.80;99.90;;;;;;5058613;28;20196;-80
2022/01/02 12:43:58;;;;;;;10.10;5.63;;;11.80;99.90;;;;;;5061371;28;20180;-80
2022/01/02 12:46:34;;;;;;;11.13;5.50;;;11.80;99.90;;;;;;5069577;28;20209;-79
2022/01/02 12:49:02;;;;;;;14.80;5.27;;;11.80;99.90;;;;;;5069408;28;20231;-81
2022/01/02 12:51:30;;;;;;;11.77;5.13;;;11.80;99.90;;;;;;5053099;28;20182;-81
2022/01/02 12:54:05;;;;;;;9.73;5.10;;;11.80;99.90;;;;;;5066381;28;20169;-81
2022/01/02 12:56:42;;;;;;;11.03;5.93;;;11.80;99.90;;;;;;5050647;28;20680;-81